createdAt,value
2023-03-08T00:02:23.226Z,99651.44
2023-03-08T00:06:27.644Z,99652.28
2023-03-08T00:10:30.460Z,99660.91
2023-03-08T00:14:33.288Z,99660.09
2023-03-08T00:18:37.546Z,99652.88
2023-03-08T00:22:41.768Z,99662.56
2023-03-08T00:26:44.900Z,99649.59
2023-03-08T00:30:55.522Z,99651.66
2023-03-08T00:34:59.843Z,99642.38
2023-03-08T00:39:02.698Z,99652.03
2023-03-08T00:43:06.716Z,99645.66
2023-03-08T00:47:10.307Z,99641.13
2023-03-08T00:51:15.565Z,99640.56
2023-03-08T00:55:18.428Z,99636.03
2023-03-08T00:59:23.303Z,99629.66
2023-03-08T01:03:27.097Z,99630.69
2023-03-08T01:07:32.892Z,99625.34
2023-03-08T01:11:37.145Z,99638.09
2023-03-08T01:15:40.134Z,99636.22
2023-03-08T01:19:42.940Z,99637.41
2023-03-08T01:23:47.465Z,99630.41
2023-03-08T01:27:51.697Z,99634.91
2023-03-08T01:31:54.631Z,99632.03
2023-03-08T01:35:58.598Z,99616.00
2023-03-08T01:40:04.974Z,99623.19
2023-03-08T01:44:11.586Z,99615.00
2023-03-08T01:48:17.005Z,99614.38
2023-03-08T01:52:40.543Z,99610.88
2023-03-08T01:56:48.347Z,99598.50
2023-03-08T02:00:51.549Z,99598.31
2023-03-08T02:04:54.691Z,99598.31
2023-03-08T02:08:57.677Z,99583.09
2023-03-08T02:13:02.359Z,99586.41
2023-03-08T02:17:05.780Z,99587.47
2023-03-08T02:21:08.546Z,99592.38
2023-03-08T02:25:16.615Z,99581.69
2023-03-08T02:29:19.436Z,99577.59
2023-03-08T02:33:23.188Z,99575.78
2023-03-08T02:37:26.109Z,99574.97
2023-03-08T02:41:31.381Z,99570.03
2023-03-08T02:45:34.622Z,99556.47
2023-03-08T02:49:37.581Z,99557.94
2023-03-08T02:53:40.569Z,99541.25
2023-03-08T02:57:44.767Z,99557.09
2023-03-08T03:01:47.713Z,99552.56
2023-03-08T03:05:50.510Z,99554.59
2023-03-08T03:09:58.479Z,99548.03
2023-03-08T03:14:03.334Z,99562.38
2023-03-08T03:18:11.228Z,99563.81
2023-03-08T03:22:14.216Z,99552.91
2023-03-08T03:26:20.070Z,99548.59
2023-03-08T03:30:27.695Z,99549.41
2023-03-08T03:34:30.856Z,99555.59
2023-03-08T03:38:34.751Z,99550.28
2023-03-08T03:42:38.540Z,99548.84
2023-03-08T03:46:47.608Z,99559.75
2023-03-08T03:50:57.858Z,99568.19
2023-03-08T03:55:01.143Z,99558.31
2023-03-08T03:59:04.053Z,99558.31
2023-03-08T04:03:09.458Z,99543.91
2023-03-08T04:07:13.895Z,99556.47
2023-03-08T04:11:27.050Z,99556.06
2023-03-08T04:15:30.274Z,99543.75
2023-03-08T04:19:38.060Z,99546.44
2023-03-08T04:23:42.242Z,99524.59
2023-03-08T04:27:45.850Z,99518.88
2023-03-08T04:31:49.633Z,99500.97
2023-03-08T04:35:56.765Z,99499.13
2023-03-08T04:40:01.344Z,99498.91
2023-03-08T04:44:07.507Z,99499.97
2023-03-08T04:48:17.710Z,99495.84
2023-03-08T04:52:23.502Z,99502.22
2023-03-08T04:56:26.314Z,99493.16
2023-03-08T05:00:30.016Z,99484.91
2023-03-08T05:04:33.258Z,99480.59
2023-03-08T05:08:38.303Z,99479.56
2023-03-08T05:12:42.271Z,99463.56
2023-03-08T05:16:45.520Z,99464.78
2023-03-08T05:20:54.640Z,99452.00
2023-03-08T05:24:58.912Z,99463.94
2023-03-08T05:29:03.401Z,99448.94
2023-03-08T05:33:07.346Z,99448.13
2023-03-08T05:37:10.453Z,99436.19
2023-03-08T05:41:17.744Z,99428.78
2023-03-08T05:45:25.098Z,99424.44
2023-03-08T05:49:29.465Z,99418.09
2023-03-08T05:53:33.095Z,99418.47
2023-03-08T05:57:37.538Z,99404.69
2023-03-08T06:01:41.329Z,99407.75
2023-03-08T06:06:01.320Z,99397.88
2023-03-08T06:10:04.744Z,99395.00
2023-03-08T06:14:09.002Z,99381.25
2023-03-08T06:18:12.414Z,99366.88
2023-03-08T06:22:17.290Z,99362.94
2023-03-08T06:26:21.690Z,99359.69
2023-03-08T06:30:25.944Z,99355.13
2023-03-08T06:34:29.960Z,99344.44
2023-03-08T06:38:35.490Z,99338.69
2023-03-08T06:42:41.600Z,99330.84
2023-03-08T06:46:49.380Z,99342.59
2023-03-08T06:50:52.330Z,99338.69
2023-03-08T06:54:55.234Z,99341.78
2023-03-08T06:58:58.632Z,99334.34
2023-03-08T07:03:02.867Z,99335.81
2023-03-08T07:07:07.829Z,99337.88
2023-03-08T07:11:11.655Z,99336.84
2023-03-08T07:15:15.796Z,99332.34
2023-03-08T07:19:20.067Z,99338.28
2023-03-08T07:23:22.905Z,99331.66
2023-03-08T07:27:25.967Z,99321.38
2023-03-08T07:31:29.034Z,99328.59
2023-03-08T07:35:33.355Z,99327.56
2023-03-08T07:39:36.164Z,99339.88
2023-03-08T07:43:39.094Z,99334.31
2023-03-08T07:47:51.156Z,99337.41
2023-03-08T07:51:55.891Z,99332.91
2023-03-08T07:56:00.038Z,99325.06
2023-03-08T08:00:07.373Z,99324.81
2023-03-08T08:04:14.861Z,99327.81
2023-03-08T08:08:19.162Z,99320.56
2023-03-08T08:12:23.477Z,99311.84
2023-03-08T08:16:26.783Z,99304.19
2023-03-08T08:20:29.634Z,99300.22
2023-03-08T08:24:33.916Z,99298.09
2023-03-08T08:28:37.936Z,99291.66
2023-03-08T08:32:41.032Z,99278.88
2023-03-08T08:36:43.864Z,99289.13
2023-03-08T08:40:48.194Z,99274.00
2023-03-08T08:44:51.159Z,99263.00
2023-03-08T08:48:53.964Z,99259.44
2023-03-08T08:52:57.760Z,99255.50
2023-03-08T08:57:02.070Z,99249.19
2023-03-08T09:01:05.154Z,99245.41
2023-03-08T09:05:08.479Z,99247.44
2023-03-08T09:09:11.397Z,99237.47
2023-03-08T09:13:15.721Z,99242.47
2023-03-08T09:17:19.265Z,99243.63
2023-03-08T09:21:22.070Z,99231.78
2023-03-08T09:25:25.330Z,99229.03
2023-03-08T09:29:29.484Z,99226.44
2023-03-08T09:33:32.469Z,99233.50
2023-03-08T09:37:35.341Z,99222.09
2023-03-08T09:41:49.369Z,99218.97
2023-03-08T09:45:55.831Z,99210.16
2023-03-08T09:50:07.512Z,99207.94
2023-03-08T09:54:14.902Z,99200.75
2023-03-08T09:58:33.012Z,99188.06
2023-03-08T10:02:44.944Z,99181.16
2023-03-08T10:06:57.384Z,99176.88
2023-03-08T10:11:03.502Z,99168.47
2023-03-08T10:15:12.175Z,99170.81
2023-03-08T10:19:21.208Z,99162.06
2023-03-08T10:23:25.865Z,99141.75
2023-03-08T10:27:33.163Z,99142.13
2023-03-08T10:31:36.086Z,99138.38
2023-03-08T10:35:54.178Z,99137.09
2023-03-08T10:39:59.744Z,99133.47
2023-03-08T10:44:02.611Z,99131.00
2023-03-08T10:48:07.022Z,99137.41
2023-03-08T10:52:24.917Z,99128.31
2023-03-08T10:56:37.991Z,99127.50
2023-03-08T11:00:43.768Z,99120.69
2023-03-08T11:04:52.615Z,99120.94
2023-03-08T11:08:59.871Z,99125.38
2023-03-08T11:13:04.040Z,99109.00
2023-03-08T11:17:16.940Z,99112.13
2023-03-08T11:21:27.821Z,99118.03
2023-03-08T11:25:43.243Z,99104.84
2023-03-08T11:30:01.148Z,99101.34
2023-03-08T11:34:20.238Z,99103.41
2023-03-08T11:38:26.401Z,99102.66
2023-03-08T11:42:46.395Z,99095.38
2023-03-08T11:47:04.446Z,99084.78
2023-03-08T11:51:15.283Z,99070.84
2023-03-08T11:55:43.647Z,99066.81
2023-03-08T11:59:52.733Z,99067.94
2023-03-08T12:03:59.082Z,99058.88
2023-03-08T12:08:06.599Z,99069.91
2023-03-08T12:12:15.486Z,99072.84
2023-03-08T12:16:26.127Z,99079.59
2023-03-08T12:20:32.918Z,99073.75
2023-03-08T12:24:45.606Z,99067.47
2023-03-08T12:28:55.043Z,99072.84
2023-03-08T12:33:02.457Z,99060.75
2023-03-08T12:37:06.171Z,99052.28
2023-03-08T12:41:23.644Z,99055.06
2023-03-08T12:45:30.890Z,99030.50
2023-03-08T12:49:38.716Z,99024.91
2023-03-08T12:53:44.593Z,99028.81
2023-03-08T12:57:50.984Z,99036.53
2023-03-08T13:02:02.539Z,99045.06
2023-03-08T13:06:34.627Z,99049.47
2023-03-08T13:10:40.281Z,99056.84
2023-03-08T13:14:45.171Z,99044.38
2023-03-08T13:18:53.387Z,99037.25
2023-03-08T13:23:19.444Z,99036.31
2023-03-08T13:27:32.392Z,99027.94
2023-03-08T13:31:35.314Z,99010.00
2023-03-08T13:35:38.151Z,99009.19
2023-03-08T13:39:42.353Z,98993.38
2023-03-08T13:43:45.181Z,99003.13
2023-03-08T13:47:48.590Z,99003.63
2023-03-08T13:51:54.941Z,99015.09
2023-03-08T13:56:02.613Z,99009.91
2023-03-08T14:00:24.885Z,98995.84
2023-03-08T14:04:29.886Z,98984.38
2023-03-08T14:08:33.017Z,98987.81
2023-03-08T14:12:38.078Z,98995.97
2023-03-08T14:16:43.201Z,98996.94
2023-03-08T14:20:46.770Z,98997.91
2023-03-08T14:24:54.163Z,99004.44
2023-03-08T14:29:13.200Z,98997.44
2023-03-08T14:33:28.252Z,99013.44
2023-03-08T14:37:34.585Z,99001.19
2023-03-08T14:41:38.308Z,99002.09
2023-03-08T14:45:52.796Z,98986.75
2023-03-08T14:49:57.222Z,98982.81
2023-03-08T14:54:02.600Z,98976.78
2023-03-08T14:58:11.391Z,98974.09
2023-03-08T15:02:18.028Z,98983.31
2023-03-08T15:06:23.824Z,98974.66
2023-03-08T15:10:30.367Z,98965.59
2023-03-08T15:14:33.236Z,98973.69
2023-03-08T15:18:37.496Z,98973.19
2023-03-08T15:22:44.968Z,98970.50
2023-03-08T15:26:47.752Z,98954.09
2023-03-08T15:30:52.762Z,98959.06
2023-03-08T15:34:56.975Z,98973.81
2023-03-08T15:39:01.308Z,98979.31
2023-03-08T15:43:04.132Z,98976.50
2023-03-08T15:47:07.387Z,98990.63
2023-03-08T15:51:18.445Z,98990.78
2023-03-08T15:55:22.128Z,98999.28
2023-03-08T15:59:25.788Z,98986.34
2023-03-08T16:03:31.009Z,98992.41
2023-03-08T16:07:36.715Z,98994.19
2023-03-08T16:11:39.625Z,98999.81
2023-03-08T16:15:42.433Z,98996.31
2023-03-08T16:19:45.579Z,98992.22
2023-03-08T16:23:49.773Z,98981.00
2023-03-08T16:27:53.120Z,98969.56
2023-03-08T16:31:57.169Z,98989.00
2023-03-08T16:35:59.994Z,98989.56
2023-03-08T16:40:07.187Z,98981.50
2023-03-08T16:44:20.223Z,98983.88
2023-03-08T16:48:24.092Z,98986.06
2023-03-08T16:52:32.782Z,98973.13
2023-03-08T16:56:44.665Z,98984.00
2023-03-08T17:00:47.951Z,98973.84
2023-03-08T17:04:52.089Z,98995.19
2023-03-08T17:08:54.945Z,98992.03
2023-03-08T17:12:59.141Z,98982.38
2023-03-08T17:17:01.931Z,98983.63
2023-03-08T17:21:07.345Z,98961.69
2023-03-08T17:25:10.596Z,98965.53
2023-03-08T17:29:15.297Z,98972.97
2023-03-08T17:33:18.105Z,98968.56
2023-03-08T17:37:22.959Z,98968.56
2023-03-08T17:41:25.804Z,98965.75
2023-03-08T17:45:30.290Z,98960.53
2023-03-08T17:49:34.107Z,98946.75
2023-03-08T17:53:50.140Z,98944.75
2023-03-08T17:57:52.991Z,98948.72
2023-03-08T18:01:58.156Z,98951.88
2023-03-08T18:06:01.120Z,98956.38
2023-03-08T18:10:04.144Z,98965.38
2023-03-08T18:14:08.155Z,98953.81
2023-03-08T18:18:12.284Z,98954.19
2023-03-08T18:22:16.135Z,98955.91
2023-03-08T18:26:19.604Z,98966.41
2023-03-08T18:30:22.603Z,98961.28
2023-03-08T18:34:26.944Z,98949.72
2023-03-08T18:38:35.789Z,98962.69
2023-03-08T18:42:38.745Z,98963.13
2023-03-08T18:46:41.671Z,98964.44
2023-03-08T18:50:45.953Z,98950.66
2023-03-08T18:54:49.590Z,98943.06
2023-03-08T18:58:52.579Z,98955.06
2023-03-08T19:02:55.475Z,98946.09
2023-03-08T19:06:59.714Z,98939.88
2023-03-08T19:11:11.304Z,98952.72
2023-03-08T19:15:14.360Z,98942.22
2023-03-08T19:19:18.125Z,98928.00
2023-03-08T19:23:22.364Z,98930.31
2023-03-08T19:27:25.538Z,98923.09
2023-03-08T19:31:28.542Z,98925.66
2023-03-08T19:35:31.795Z,98916.28
2023-03-08T19:39:38.014Z,98917.91
2023-03-08T19:43:41.135Z,98916.28
2023-03-08T19:47:43.936Z,98903.50
2023-03-08T19:51:48.094Z,98909.88
2023-03-08T19:55:52.945Z,98910.72
2023-03-08T19:59:57.730Z,98906.47
2023-03-08T20:04:00.763Z,98913.38
2023-03-08T20:08:03.681Z,98923.50
2023-03-08T20:12:07.998Z,98917.38
2023-03-08T20:16:10.868Z,98905.03
2023-03-08T20:20:14.065Z,98893.59
2023-03-08T20:24:18.427Z,98877.53
2023-03-08T20:28:22.644Z,98892.78
2023-03-08T20:32:25.585Z,98903.63
2023-03-08T20:36:29.432Z,98906.56
2023-03-08T20:40:32.222Z,98901.31
2023-03-08T20:44:36.398Z,98897.72
2023-03-08T20:48:40.952Z,98899.00
2023-03-08T20:52:43.752Z,98909.00
2023-03-08T20:56:46.525Z,98916.13
2023-03-08T21:00:50.735Z,98890.50
2023-03-08T21:04:53.569Z,98886.66
2023-03-08T21:08:56.709Z,98885.03
2023-03-08T21:12:59.662Z,98879.22
2023-03-08T21:17:03.834Z,98882.69
2023-03-08T21:21:07.150Z,98879.94
2023-03-08T21:25:11.053Z,98868.78
2023-03-08T21:29:15.652Z,98862.81
2023-03-08T21:33:20.081Z,98862.09
2023-03-08T21:37:22.929Z,98878.47
2023-03-08T21:41:27.198Z,98878.25
2023-03-08T21:45:30.067Z,98871.41
2023-03-08T21:49:35.099Z,98877.34
2023-03-08T21:53:38.333Z,98883.31
2023-03-08T21:57:41.523Z,98881.56
2023-03-08T22:01:48.105Z,98879.69
2023-03-08T22:05:53.807Z,98865.47
2023-03-08T22:09:56.631Z,98857.78
2023-03-08T22:14:01.990Z,98858.16
2023-03-08T22:18:04.864Z,98845.81
2023-03-08T22:22:10.375Z,98852.09
2023-03-08T22:26:13.247Z,98853.72
2023-03-08T22:30:16.378Z,98830.88
2023-03-08T22:34:19.137Z,98822.03
2023-03-08T22:38:23.319Z,98803.97
2023-03-08T22:42:26.269Z,98815.97
2023-03-08T22:46:29.049Z,98819.22
2023-03-08T22:50:32.197Z,98821.69
2023-03-08T22:54:37.141Z,98825.63
2023-03-08T22:58:39.942Z,98815.16
2023-03-08T23:02:43.125Z,98807.25
2023-03-08T23:06:46.041Z,98801.91
2023-03-08T23:10:50.315Z,98799.06
2023-03-08T23:14:53.071Z,98779.63
2023-03-08T23:18:56.274Z,98771.22
2023-03-08T23:22:59.136Z,98777.84
2023-03-08T23:27:04.231Z,98763.88
2023-03-08T23:31:10.371Z,98775.28
2023-03-08T23:35:13.661Z,98758.75
2023-03-08T23:39:16.496Z,98766.09
2023-03-08T23:43:20.703Z,98771.00
2023-03-08T23:47:23.490Z,98777.38
2023-03-08T23:51:29.034Z,98784.41
2023-03-08T23:55:32.005Z,98798.47
2023-03-08T23:59:36.454Z,98796.38
